Time;durP1;ratioP1;P1;durP2;ratioP2;P2;SDS_P1;SDS_P2;PMS_P1;PMS_P2;Temp;Humidity;BMP_temperature;BMP_pressure;BME280_temperature;BME280_humidity;BME280_pressure;Samples;Min_cycle;Max_cycle;Signal;HPM_P1;HPM_P2
2023/05/20 00:00:51;;;;;;;5.33;3.53;;;13.00;99.90;;;;;;5076001;28;20458;-66
2023/05/20 00:03:19;;;;;;;3.10;2.80;;;13.00;99.90;;;;;;5075814;28;20458;-66
2023/05/20 00:05:47;;;;;;;4.00;2.70;;;13.00;99.90;;;;;;5075767;28;20458;-66
2023/05/20 00:08:13;;;;;;;4.23;3.20;;;12.90;99.90;;;;;;5076169;28;20485;-66
2023/05/20 00:10:41;;;;;;;4.50;3.10;;;12.90;99.90;;;;;;5075806;28;20464;-66
2023/05/20 00:13:08;;;;;;;3.77;3.10;;;12.90;99.90;;;;;;5075724;28;20458;-66
2023/05/20 00:15:35;;;;;;;3.23;2.93;;;12.90;99.90;;;;;;5075806;28;20480;-66
2023/05/20 00:18:04;;;;;;;4.70;2.80;;;12.90;99.90;;;;;;5075120;28;20967;-66
2023/05/20 00:20:32;;;;;;;3.87;3.20;;;12.80;99.90;;;;;;5075221;28;20454;-66
2023/05/20 00:22:59;;;;;;;4.80;3.83;;;12.80;99.90;;;;;;5075540;28;20796;-66
2023/05/20 00:25:26;;;;;;;5.57;4.00;;;12.70;99.90;;;;;;5075191;28;20817;-66
2023/05/20 00:27:53;;;;;;;4.87;3.00;;;12.70;99.90;;;;;;5075223;28;20458;-66
2023/05/20 00:30:20;;;;;;;3.87;3.57;;;12.70;99.90;;;;;;5075226;28;20454;-66
2023/05/20 00:32:47;;;;;;;4.03;3.53;;;12.70;99.90;;;;;;5075302;28;20470;-67
2023/05/20 00:35:15;;;;;;;3.53;3.23;;;12.70;99.90;;;;;;5075287;28;20464;-67
2023/05/20 00:37:43;;;;;;;4.30;3.70;;;12.60;99.90;;;;;;5074911;28;20478;-67
2023/05/20 00:40:11;;;;;;;3.80;3.33;;;12.60;99.90;;;;;;5074824;28;20816;-67
2023/05/20 00:42:38;;;;;;;4.67;3.47;;;12.60;99.90;;;;;;5075035;28;20459;-66
2023/05/20 00:45:05;;;;;;;3.73;3.23;;;12.60;99.90;;;;;;5075106;28;20530;-67
2023/05/20 00:47:35;;;;;;;3.63;3.27;;;12.60;99.90;;;;;;5074803;28;20600;-66
2023/05/20 00:50:02;;;;;;;5.60;3.57;;;12.50;99.90;;;;;;5074762;28;20450;-66
2023/05/20 00:52:32;;;;;;;3.80;3.50;;;12.50;99.90;;;;;;5074911;28;20509;-66
2023/05/20 00:54:59;;;;;;;4.97;4.20;;;12.50;99.90;;;;;;5074595;28;20462;-66
2023/05/20 00:57:27;;;;;;;7.47;3.77;;;12.50;99.90;;;;;;5074861;28;20486;-66
2023/05/20 00:59:54;;;;;;;4.80;3.73;;;12.50;99.90;;;;;;5075335;28;20787;-66
2023/05/20 01:02:21;;;;;;;3.73;3.43;;;12.50;99.90;;;;;;5074627;28;20464;-66
2023/05/20 01:04:48;;;;;;;5.60;3.50;;;12.40;99.90;;;;;;5074426;28;20454;-66
2023/05/20 01:07:16;;;;;;;4.27;3.50;;;12.40;99.90;;;;;;5074401;28;20478;-65
2023/05/20 01:09:45;;;;;;;4.97;3.80;;;12.40;99.90;;;;;;5074489;28;20458;-66
2023/05/20 01:12:16;;;;;;;5.80;3.70;;;12.40;99.90;;;;;;5074261;28;20465;-66
2023/05/20 01:14:48;;;;;;;4.03;3.70;;;12.40;99.90;;;;;;5074310;28;20452;-66
2023/05/20 01:17:16;;;;;;;4.00;3.40;;;12.40;99.90;;;;;;5074198;28;20950;-66
2023/05/20 01:19:45;;;;;;;3.73;3.40;;;12.30;99.90;;;;;;5074505;28;20469;-66
2023/05/20 01:22:13;;;;;;;4.63;4.03;;;12.30;99.90;;;;;;5074335;28;20465;-66
2023/05/20 01:24:43;;;;;;;6.80;3.77;;;12.30;99.90;;;;;;5074259;28;20454;-66
2023/05/20 01:27:12;;;;;;;4.17;3.77;;;12.30;99.90;;;;;;5073994;28;20461;-66
2023/05/20 01:29:40;;;;;;;6.40;3.90;;;12.30;99.90;;;;;;5073776;28;20548;-66
2023/05/20 01:32:11;;;;;;;4.20;3.80;;;12.30;99.90;;;;;;5074176;28;20454;-66
2023/05/20 01:34:41;;;;;;;4.40;3.60;;;12.20;99.90;;;;;;5074390;28;20781;-66
2023/05/20 01:37:08;;;;;;;4.30;3.50;;;12.20;99.90;;;;;;5074048;28;20577;-66
2023/05/20 01:39:38;;;;;;;5.07;3.93;;;12.20;99.90;;;;;;5074097;28;20482;-66
2023/05/20 01:42:08;;;;;;;3.80;3.20;;;12.20;99.90;;;;;;5074421;28;20469;-66
2023/05/20 01:44:35;;;;;;;4.10;3.70;;;12.20;99.90;;;;;;5074051;28;20545;-67
2023/05/20 01:47:03;;;;;;;7.70;5.03;;;12.20;99.90;;;;;;5074109;28;20464;-66
2023/05/20 01:49:30;;;;;;;4.77;4.07;;;12.20;99.90;;;;;;5074742;28;20461;-66
2023/05/20 01:51:57;;;;;;;5.93;4.70;;;12.10;99.90;;;;;;5074149;28;20529;-66
2023/05/20 01:54:24;;;;;;;4.40;4.00;;;12.10;99.90;;;;;;5073924;28;20458;-66
2023/05/20 01:56:51;;;;;;;4.63;3.23;;;12.10;99.90;;;;;;5074087;28;20786;-66
2023/05/20 01:59:19;;;;;;;4.63;3.50;;;12.10;99.90;;;;;;5074120;28;20554;-67
2023/05/20 02:01:46;;;;;;;4.63;4.00;;;12.10;99.90;;;;;;5074126;28;20484;-66
2023/05/20 02:04:13;;;;;;;4.93;3.80;;;12.00;99.90;;;;;;5074156;28;20537;-67
2023/05/20 02:06:40;;;;;;;3.63;3.23;;;12.00;99.90;;;;;;5073864;28;20446;-66
2023/05/20 02:09:07;;;;;;;5.00;3.57;;;12.00;99.90;;;;;;5073769;28;20468;-66
2023/05/20 02:11:35;;;;;;;5.00;3.63;;;12.00;99.90;;;;;;5074253;28;20834;-67
2023/05/20 02:14:01;;;;;;;6.10;4.23;;;11.90;99.90;;;;;;5073981;28;20466;-68
2023/05/20 02:16:30;;;;;;;5.17;3.80;;;11.90;99.90;;;;;;5073911;28;20489;-67
2023/05/20 02:18:57;;;;;;;4.73;3.80;;;11.90;99.90;;;;;;5073865;28;20450;-67
2023/05/20 02:21:24;;;;;;;5.43;4.10;;;11.80;99.90;;;;;;5074136;28;20481;-67
2023/05/20 02:23:51;;;;;;;4.60;3.67;;;11.80;99.90;;;;;;5074071;28;20481;-67
2023/05/20 02:26:19;;;;;;;8.30;4.07;;;11.70;99.90;;;;;;5073626;28;20875;-67
2023/05/20 02:28:49;;;;;;;5.00;3.83;;;11.70;99.90;;;;;;5073863;28;20454;-67
2023/05/20 02:31:16;;;;;;;4.53;4.13;;;11.70;99.90;;;;;;5073766;28;20464;-67
2023/05/20 02:33:44;;;;;;;5.50;3.60;;;11.60;99.90;;;;;;5074104;28;20740;-67
2023/05/20 02:36:11;;;;;;;6.80;4.27;;;11.60;99.90;;;;;;5074034;28;20458;-68
2023/05/20 02:38:38;;;;;;;4.10;3.70;;;11.60;99.90;;;;;;5073548;28;20496;-67
2023/05/20 02:41:05;;;;;;;4.70;3.77;;;11.60;99.90;;;;;;5073997;28;20453;-67
2023/05/20 02:43:33;;;;;;;5.30;4.20;;;11.50;99.90;;;;;;5077648;28;20464;-66
2023/05/20 02:46:00;;;;;;;6.73;4.80;;;11.50;99.90;;;;;;5077444;28;20485;-67
2023/05/20 02:48:27;;;;;;;4.73;4.20;;;11.50;99.90;;;;;;5077675;28;20450;-67
2023/05/20 02:50:55;;;;;;;4.30;3.90;;;11.40;99.90;;;;;;5077474;28;20454;-67
2023/05/20 02:53:22;;;;;;;5.07;3.97;;;11.40;99.90;;;;;;5077058;28;20496;-67
2023/05/20 02:55:50;;;;;;;4.80;3.67;;;11.40;99.90;;;;;;5077341;28;20454;-67
2023/05/20 02:58:17;;;;;;;5.00;4.13;;;11.40;99.90;;;;;;5076873;28;20473;-67
2023/05/20 03:00:43;;;;;;;5.20;4.30;;;11.30;99.90;;;;;;5076962;28;20458;-67
2023/05/20 03:03:12;;;;;;;4.67;3.83;;;11.30;99.90;;;;;;5077244;28;20782;-66
2023/05/20 03:05:41;;;;;;;5.53;4.57;;;11.30;99.90;;;;;;5076916;28;20501;-67
2023/05/20 03:08:10;;;;;;;5.73;3.50;;;11.30;99.90;;;;;;5077049;28;20911;-67
2023/05/20 03:10:37;;;;;;;4.37;3.97;;;11.20;99.90;;;;;;5077054;28;20787;-69
2023/05/20 03:13:07;;;;;;;6.03;4.47;;;11.20;99.90;;;;;;5076907;28;20787;-67
2023/05/20 03:15:34;;;;;;;5.80;3.60;;;11.20;99.90;;;;;;5076893;28;20454;-67
2023/05/20 03:18:01;;;;;;;4.77;4.10;;;11.20;99.90;;;;;;5077489;28;20481;-67
2023/05/20 03:20:28;;;;;;;4.80;4.30;;;11.20;99.90;;;;;;5076646;28;20458;-67
2023/05/20 03:22:55;;;;;;;5.00;3.57;;;11.20;99.90;;;;;;5076371;28;20453;-67
2023/05/20 03:25:25;;;;;;;4.00;3.60;;;11.20;99.90;;;;;;5076976;28;20549;-67
2023/05/20 03:27:52;;;;;;;5.03;3.90;;;11.20;99.90;;;;;;5076834;28;20450;-68
2023/05/20 03:30:19;;;;;;;4.13;3.70;;;11.20;99.90;;;;;;5076636;28;20558;-67
2023/05/20 03:32:45;;;;;;;4.97;4.20;;;11.20;99.90;;;;;;5076368;28;20495;-67
2023/05/20 03:35:13;;;;;;;7.30;4.13;;;11.20;99.90;;;;;;5076663;28;20454;-67
2023/05/20 03:37:39;;;;;;;4.23;3.83;;;11.20;99.90;;;;;;5075889;28;20485;-67
2023/05/20 03:40:09;;;;;;;7.80;4.47;;;11.20;99.90;;;;;;5076626;28;20539;-68
2023/05/20 03:42:37;;;;;;;7.23;4.23;;;11.20;99.90;;;;;;5076237;28;20891;-67
2023/05/20 03:45:05;;;;;;;4.73;4.27;;;11.30;99.90;;;;;;5076507;28;20872;-68
2023/05/20 03:47:32;;;;;;;5.10;4.20;;;11.30;99.90;;;;;;5076450;28;20779;-67
2023/05/20 03:49:59;;;;;;;7.73;4.10;;;11.30;99.90;;;;;;5076387;28;20459;-67
2023/05/20 03:52:26;;;;;;;8.70;4.33;;;11.30;99.90;;;;;;5075695;28;20465;-68
2023/05/20 03:54:53;;;;;;;4.87;4.10;;;11.30;99.90;;;;;;5076088;28;20458;-67
2023/05/20 03:57:20;;;;;;;7.50;4.13;;;11.40;99.90;;;;;;5075825;28;20580;-67
2023/05/20 03:59:48;;;;;;;4.57;4.17;;;11.40;99.90;;;;;;5075816;28;20620;-67
2023/05/20 04:02:16;;;;;;;7.30;4.50;;;11.40;99.90;;;;;;5076054;28;20464;-67
2023/05/20 04:04:43;;;;;;;4.73;4.20;;;11.40;99.90;;;;;;5076041;28;20458;-67
2023/05/20 04:07:10;;;;;;;8.23;3.83;;;11.40;99.90;;;;;;5076062;28;20482;-67
2023/05/20 04:09:38;;;;;;;6.50;4.30;;;11.40;99.90;;;;;;5075897;28;20480;-66
2023/05/20 04:12:05;;;;;;;6.30;4.47;;;11.50;99.90;;;;;;5075516;28;20461;-67
2023/05/20 04:14:33;;;;;;;5.10;4.10;;;11.50;99.90;;;;;;5075822;28;20454;-67
2023/05/20 04:17:03;;;;;;;5.97;4.10;;;11.50;99.90;;;;;;5075584;28;20458;-66
2023/05/20 04:19:30;;;;;;;5.70;4.20;;;11.50;99.90;;;;;;5075694;28;20455;-67
2023/05/20 04:21:57;;;;;;;5.57;4.93;;;11.50;99.90;;;;;;5075567;28;20468;-66
2023/05/20 04:24:25;;;;;;;4.07;3.63;;;11.50;99.90;;;;;;5075347;28;20477;-67
2023/05/20 04:26:52;;;;;;;6.70;4.20;;;11.50;99.90;;;;;;5075934;28;20450;-67
2023/05/20 04:29:19;;;;;;;4.23;3.83;;;11.60;99.90;;;;;;5075588;28;20862;-67
2023/05/20 04:31:46;;;;;;;5.67;4.17;;;11.60;99.90;;;;;;5075542;28;20846;-68
2023/05/20 04:34:18;;;;;;;6.40;4.70;;;11.60;99.90;;;;;;5074993;28;20465;-67
2023/05/20 04:36:45;;;;;;;5.73;4.30;;;11.60;99.90;;;;;;5075058;28;20442;-67
2023/05/20 04:39:12;;;;;;;10.90;4.70;;;11.60;99.90;;;;;;5074658;28;20485;-66
2023/05/20 04:41:39;;;;;;;8.13;4.30;;;11.60;99.90;;;;;;5075162;28;20781;-68
2023/05/20 04:44:06;;;;;;;6.83;4.23;;;11.70;99.90;;;;;;5074787;28;20454;-67
2023/05/20 04:46:33;;;;;;;5.10;4.00;;;11.70;99.90;;;;;;5075290;28;20458;-67
2023/05/20 04:49:00;;;;;;;5.40;4.23;;;11.70;99.90;;;;;;5075211;28;20454;-66
2023/05/20 04:51:29;;;;;;;6.13;4.27;;;11.70;99.90;;;;;;5074576;28;20461;-65
2023/05/20 04:53:55;;;;;;;4.40;4.00;;;11.70;99.90;;;;;;5074981;28;20454;-68
2023/05/20 04:56:23;;;;;;;4.67;4.07;;;11.70;99.90;;;;;;5074927;28;20564;-67
2023/05/20 04:58:50;;;;;;;6.80;4.63;;;11.70;99.90;;;;;;5074509;28;20638;-67
2023/05/20 05:01:17;;;;;;;7.10;5.03;;;11.80;99.90;;;;;;5074682;28;20484;-68
2023/05/20 05:03:44;;;;;;;7.33;4.63;;;11.80;99.90;;;;;;5074840;28;20742;-67
2023/05/20 05:06:11;;;;;;;6.87;4.93;;;11.80;99.90;;;;;;5073858;28;20458;-67
2023/05/20 05:08:39;;;;;;;6.93;5.20;;;11.80;99.90;;;;;;5074211;28;20450;-67
2023/05/20 05:11:06;;;;;;;6.27;5.20;;;11.80;99.90;;;;;;5074576;28;20895;-67
2023/05/20 05:13:33;;;;;;;4.83;4.10;;;11.90;99.90;;;;;;5074273;28;20458;-67
2023/05/20 05:16:00;;;;;;;10.50;5.10;;;11.90;99.90;;;;;;5074525;28;20458;-67
2023/05/20 05:18:27;;;;;;;8.60;5.07;;;11.90;99.90;;;;;;5074781;28;20500;-67
2023/05/20 05:21:00;;;;;;;4.50;4.10;;;11.90;99.90;;;;;;5074790;28;20462;-67
2023/05/20 05:23:27;;;;;;;6.60;4.73;;;12.00;99.90;;;;;;5074744;28;20434;-67
2023/05/20 05:25:56;;;;;;;5.37;4.73;;;12.00;99.90;;;;;;5074473;28;20914;-67
2023/05/20 05:28:23;;;;;;;8.73;5.10;;;12.00;99.90;;;;;;5074395;28;20454;-67
2023/05/20 05:30:49;;;;;;;6.00;4.70;;;12.00;99.90;;;;;;5073878;28;20929;-68
2023/05/20 05:33:16;;;;;;;7.30;4.40;;;12.00;99.90;;;;;;5074719;28;20464;-68
2023/05/20 05:35:43;;;;;;;6.20;5.60;;;12.00;99.90;;;;;;5074597;28;20552;-68
2023/05/20 05:38:10;;;;;;;5.40;4.90;;;12.10;99.90;;;;;;5074018;28;20482;-66
2023/05/20 05:40:37;;;;;;;8.87;5.30;;;12.10;99.90;;;;;;5074018;28;20496;-67
2023/05/20 05:43:05;;;;;;;5.63;4.50;;;12.10;99.90;;;;;;5074499;28;20454;-67
2023/05/20 05:45:32;;;;;;;6.97;5.17;;;12.10;99.90;;;;;;5074204;28;20458;-67
2023/05/20 05:47:59;;;;;;;6.77;5.30;;;12.20;99.90;;;;;;5073826;28;20549;-67
2023/05/20 05:50:26;;;;;;;6.00;5.07;;;12.20;99.90;;;;;;5074129;28;20458;-68
2023/05/20 05:52:53;;;;;;;6.73;4.77;;;12.30;99.90;;;;;;5074000;28;20466;-67
2023/05/20 05:55:19;;;;;;;6.00;4.60;;;12.30;99.90;;;;;;5073851;28;20480;-67
2023/05/20 05:57:46;;;;;;;6.93;5.27;;;12.30;99.90;;;;;;5073868;28;20458;-67
2023/05/20 06:00:15;;;;;;;9.10;5.33;;;12.40;99.90;;;;;;5074595;28;20462;-67
2023/05/20 06:02:42;;;;;;;7.90;4.90;;;12.40;99.90;;;;;;5074268;28;20465;-67
2023/05/20 06:05:10;;;;;;;6.77;5.60;;;12.50;99.90;;;;;;5074276;28;20472;-68
2023/05/20 06:07:36;;;;;;;5.70;4.83;;;12.50;99.90;;;;;;5073906;28;20461;-67
2023/05/20 06:10:04;;;;;;;6.47;5.30;;;12.60;99.90;;;;;;5074113;28;20454;-67
2023/05/20 06:12:30;;;;;;;7.63;5.60;;;12.70;99.90;;;;;;5073885;28;20458;-67
2023/05/20 06:14:57;;;;;;;6.50;5.10;;;12.70;99.90;;;;;;5074278;28;20468;-67
2023/05/20 06:17:26;;;;;;;11.03;5.77;;;12.80;99.90;;;;;;5076541;28;20512;-68
2023/05/20 06:19:52;;;;;;;8.70;5.33;;;12.80;99.90;;;;;;5078273;28;20485;-68
2023/05/20 06:22:19;;;;;;;6.20;5.07;;;12.90;99.90;;;;;;5077890;28;20454;-66
2023/05/20 06:24:46;;;;;;;7.10;5.40;;;12.90;99.90;;;;;;5078050;28;20454;-67
2023/05/20 06:27:13;;;;;;;7.50;5.50;;;13.00;99.90;;;;;;5078035;28;20793;-67
2023/05/20 06:29:40;;;;;;;5.67;5.10;;;13.00;99.90;;;;;;5077973;28;20573;-67
2023/05/20 06:32:07;;;;;;;6.00;5.40;;;13.00;99.90;;;;;;5077819;28;20570;-67
2023/05/20 06:34:35;;;;;;;5.77;4.87;;;13.00;99.90;;;;;;5077180;28;20454;-67
2023/05/20 06:37:02;;;;;;;7.13;5.40;;;13.00;99.90;;;;;;5077760;28;20454;-68
2023/05/20 06:39:29;;;;;;;5.90;5.23;;;13.00;99.90;;;;;;5077374;28;20906;-67
2023/05/20 06:41:56;;;;;;;6.53;4.50;;;13.00;99.90;;;;;;5077197;28;20569;-67
2023/05/20 06:44:23;;;;;;;8.13;6.03;;;13.00;99.90;;;;;;5077915;28;20465;-67
2023/05/20 06:46:49;;;;;;;6.50;5.30;;;13.10;99.90;;;;;;5077292;28;20925;-66
2023/05/20 06:49:16;;;;;;;9.70;5.47;;;13.10;99.90;;;;;;5077321;28;20554;-68
2023/05/20 06:51:44;;;;;;;5.30;4.80;;;13.10;99.90;;;;;;5077456;28;20458;-67
2023/05/20 06:54:11;;;;;;;6.17;5.37;;;13.20;99.90;;;;;;5077101;28;20930;-66
2023/05/20 06:56:38;;;;;;;7.70;5.20;;;13.20;99.90;;;;;;5077334;28;20464;-67
2023/05/20 06:59:05;;;;;;;6.80;5.80;;;13.30;99.90;;;;;;5077273;28;20488;-67
2023/05/20 07:01:31;;;;;;;6.80;4.97;;;13.30;99.90;;;;;;5077750;28;20464;-67
2023/05/20 07:03:58;;;;;;;6.70;5.30;;;13.40;99.90;;;;;;5077073;28;20484;-68
2023/05/20 07:06:25;;;;;;;10.07;5.30;;;13.40;99.90;;;;;;5076831;28;20923;-68
2023/05/20 07:08:53;;;;;;;6.33;5.27;;;13.50;99.90;;;;;;5077129;28;20450;-68
2023/05/20 07:11:20;;;;;;;8.30;5.90;;;13.50;99.90;;;;;;5077292;28;20468;-67
2023/05/20 07:13:47;;;;;;;5.67;5.07;;;13.60;99.90;;;;;;5076699;28;20533;-68
2023/05/20 07:16:14;;;;;;;8.13;6.30;;;13.60;99.90;;;;;;5076953;28;20464;-68
2023/05/20 07:18:42;;;;;;;5.90;5.30;;;13.70;99.90;;;;;;5076903;28;20482;-66
2023/05/20 07:21:09;;;;;;;6.43;5.80;;;13.80;99.90;;;;;;5076955;28;20852;-68
2023/05/20 07:23:35;;;;;;;8.40;5.83;;;13.80;99.90;;;;;;5076675;28;20460;-67
2023/05/20 07:26:04;;;;;;;9.47;6.47;;;13.90;99.90;;;;;;5076795;28;20468;-67
2023/05/20 07:28:31;;;;;;;7.37;5.87;;;14.00;99.90;;;;;;5075937;28;20451;-67
2023/05/20 07:30:59;;;;;;;6.47;5.50;;;14.00;99.90;;;;;;5076768;28;20454;-68
2023/05/20 07:33:26;;;;;;;7.50;5.10;;;14.10;99.90;;;;;;5076190;28;20450;-67
2023/05/20 07:35:53;;;;;;;9.03;5.80;;;14.10;99.90;;;;;;5076204;28;20930;-67
2023/05/20 07:38:20;;;;;;;7.00;6.30;;;14.20;99.90;;;;;;5075848;28;20490;-68
2023/05/20 07:40:47;;;;;;;6.13;5.53;;;14.20;99.90;;;;;;5076463;28;20458;-68
2023/05/20 07:43:15;;;;;;;7.10;5.93;;;14.30;99.90;;;;;;5076334;28;20460;-68
2023/05/20 07:45:42;;;;;;;9.10;6.70;;;14.30;99.90;;;;;;5076498;28;20455;-67
2023/05/20 07:48:09;;;;;;;6.23;5.63;;;14.40;99.90;;;;;;5075861;28;20464;-67
2023/05/20 07:50:36;;;;;;;6.50;5.40;;;14.50;99.90;;;;;;5076168;28;20560;-67
2023/05/20 07:53:03;;;;;;;5.90;5.30;;;14.60;99.90;;;;;;5075742;28;20513;-67
2023/05/20 07:55:30;;;;;;;8.80;5.33;;;14.70;99.90;;;;;;5076129;28;20464;-68
2023/05/20 07:57:57;;;;;;;6.30;5.60;;;14.80;99.90;;;;;;5075663;28;20455;-68
2023/05/20 08:00:25;;;;;;;5.90;5.30;;;14.90;99.90;;;;;;5076052;28;20481;-68
2023/05/20 08:02:52;;;;;;;9.50;5.50;;;15.00;99.90;;;;;;5076108;28;20458;-67
2023/05/20 08:05:19;;;;;;;6.43;5.50;;;15.10;99.90;;;;;;5075691;28;20557;-68
2023/05/20 08:07:46;;;;;;;7.17;5.50;;;15.20;99.90;;;;;;5075940;28;20454;-67
2023/05/20 08:10:13;;;;;;;7.90;6.13;;;15.30;99.90;;;;;;5075928;28;20486;-68
2023/05/20 08:12:40;;;;;;;6.53;5.10;;;15.40;99.90;;;;;;5075662;28;20490;-68
2023/05/20 08:15:08;;;;;;;6.30;5.00;;;15.60;99.90;;;;;;5075459;28;20464;-67
2023/05/20 08:17:37;;;;;;;6.33;5.60;;;15.70;99.90;;;;;;5075681;28;20454;-67
2023/05/20 08:20:06;;;;;;;7.20;5.23;;;15.80;99.90;;;;;;5075516;28;20478;-68
2023/05/20 08:22:34;;;;;;;5.43;4.23;;;15.90;99.90;;;;;;5075139;28;20938;-68
2023/05/20 08:25:01;;;;;;;7.17;5.30;;;16.00;99.90;;;;;;5075532;28;20446;-68
2023/05/20 08:27:28;;;;;;;5.60;5.10;;;16.10;99.90;;;;;;5075514;28;20799;-68
2023/05/20 08:29:55;;;;;;;5.97;4.97;;;16.10;99.90;;;;;;5075203;28;20978;-68
2023/05/20 08:32:22;;;;;;;6.17;5.20;;;16.20;99.90;;;;;;5075426;28;20553;-68
2023/05/20 08:34:50;;;;;;;6.00;5.40;;;16.20;99.90;;;;;;5075417;28;20545;-67
2023/05/20 08:37:17;;;;;;;7.17;5.30;;;16.30;99.90;;;;;;5075914;28;20458;-67
2023/05/20 08:39:45;;;;;;;6.57;5.70;;;16.40;99.90;;;;;;5074890;28;20490;-67
2023/05/20 08:42:12;;;;;;;5.23;4.83;;;16.60;99.90;;;;;;5075041;28;20553;-68
2023/05/20 08:44:41;;;;;;;7.70;4.77;;;16.70;99.90;;;;;;5075102;28;20458;-66
2023/05/20 08:47:08;;;;;;;5.60;4.80;;;16.80;99.90;;;;;;5074652;28;20458;-66
2023/05/20 08:49:35;;;;;;;6.40;4.77;;;16.90;99.90;;;;;;5074946;28;20460;-68
2023/05/20 08:52:06;;;;;;;5.10;4.60;;;17.00;99.90;;;;;;5074835;28;20489;-68
2023/05/20 08:54:43;;;;;;;5.70;5.03;;;17.10;99.90;;;;;;5074245;28;20455;-68
2023/05/20 08:57:12;;;;;;;7.90;5.47;;;17.30;99.90;;;;;;5074395;28;20868;-68
2023/05/20 08:59:41;;;;;;;5.10;4.60;;;17.40;99.90;;;;;;5074507;28;20482;-68
2023/05/20 09:02:10;;;;;;;6.80;4.87;;;17.40;99.90;;;;;;5074393;28;20465;-68
2023/05/20 09:04:37;;;;;;;5.07;4.33;;;17.50;99.90;;;;;;5074347;28;20523;-68
2023/05/20 09:07:05;;;;;;;6.03;5.43;;;17.50;99.90;;;;;;5074378;28;20849;-68
2023/05/20 09:09:33;;;;;;;6.43;5.00;;;17.60;99.90;;;;;;5074078;28;20454;-68
2023/05/20 09:12:01;;;;;;;5.93;5.37;;;17.60;99.90;;;;;;5074251;28;20458;-68
2023/05/20 09:14:28;;;;;;;4.77;4.37;;;17.60;99.90;;;;;;5074560;28;20477;-68
2023/05/20 09:16:55;;;;;;;6.37;5.27;;;17.50;99.90;;;;;;5074293;28;20469;-68
2023/05/20 09:19:22;;;;;;;5.33;4.70;;;17.40;99.90;;;;;;5074629;28;20505;-68
2023/05/20 09:21:52;;;;;;;5.50;4.67;;;17.40;99.90;;;;;;5074490;28;20934;-68
2023/05/20 09:24:24;;;;;;;5.27;4.77;;;17.30;99.90;;;;;;5074460;28;20545;-68
2023/05/20 09:26:51;;;;;;;6.47;5.10;;;17.30;99.90;;;;;;5074216;28;20438;-66
2023/05/20 09:29:18;;;;;;;5.87;4.80;;;17.30;99.90;;;;;;5074013;28;20949;-65
2023/05/20 09:31:45;;;;;;;5.83;5.23;;;17.30;99.90;;;;;;5074065;28;20976;-67
2023/05/20 09:34:12;;;;;;;5.67;4.77;;;17.30;99.90;;;;;;5074103;28;20745;-68
2023/05/20 09:36:41;;;;;;;5.80;5.30;;;17.30;99.90;;;;;;5074165;28;20466;-68
2023/05/20 09:39:13;;;;;;;6.27;5.47;;;17.30;99.90;;;;;;5073640;28;20865;-68
2023/05/20 09:41:55;;;;;;;5.93;5.10;;;17.30;99.90;;;;;;5074333;28;20863;-68
2023/05/20 09:44:22;;;;;;;6.10;5.50;;;17.30;99.90;;;;;;5074211;28;20528;-68
2023/05/20 09:46:51;;;;;;;8.83;6.00;;;17.20;99.90;;;;;;5074175;28;20451;-68
2023/05/20 09:49:20;;;;;;;5.90;5.40;;;17.20;99.90;;;;;;5073702;28;20454;-68
2023/05/20 09:51:49;;;;;;;11.27;6.40;;;17.20;99.90;;;;;;5073245;28;20926;-68
2023/05/20 09:54:19;;;;;;;9.70;6.70;;;17.30;99.90;;;;;;5073948;28;20469;-65
2023/05/20 09:56:47;;;;;;;7.53;5.67;;;17.30;99.90;;;;;;5074031;28;20465;-68
2023/05/20 09:59:16;;;;;;;8.27;6.30;;;17.40;99.90;;;;;;5073622;28;20564;-68
2023/05/20 10:01:44;;;;;;;7.40;6.70;;;17.50;99.90;;;;;;5073644;28;20487;-68
2023/05/20 10:04:12;;;;;;;7.90;7.13;;;17.50;99.90;;;;;;5073932;28;20465;-65
2023/05/20 10:07:00;;;;;;;7.30;6.60;;;17.60;99.90;;;;;;5073664;28;20468;-66
2023/05/20 10:09:43;;;;;;;9.30;6.70;;;17.60;99.90;;;;;;5073754;28;20450;-66
2023/05/20 10:12:32;;;;;;;10.00;6.13;;;17.60;99.90;;;;;;5073942;28;20880;-66
2023/05/20 10:15:10;;;;;;;7.90;7.10;;;17.60;99.90;;;;;;5073792;28;20895;-66
2023/05/20 10:17:43;;;;;;;9.60;6.40;;;17.60;99.90;;;;;;5073973;28;20442;-66
2023/05/20 10:20:10;;;;;;;8.70;6.97;;;17.60;99.90;;;;;;5073471;28;20467;-66
2023/05/20 10:22:39;;;;;;;8.20;6.70;;;17.60;99.90;;;;;;5073322;28;20462;-66
2023/05/20 10:25:07;;;;;;;6.63;5.87;;;17.60;99.90;;;;;;5073958;28;20458;-68
2023/05/20 10:27:44;;;;;;;7.80;7.00;;;17.70;99.90;;;;;;5073811;28;20848;-66
2023/05/20 10:30:19;;;;;;;6.80;6.20;;;17.80;99.90;;;;;;5073559;28;20833;-68
2023/05/20 10:33:05;;;;;;;7.87;7.07;;;17.80;99.90;;;;;;5073288;28;20539;-68
2023/05/20 10:35:32;;;;;;;7.93;7.13;;;17.70;99.90;;;;;;5073406;28;20492;-68
2023/05/20 10:38:08;;;;;;;8.33;7.17;;;17.70;99.90;;;;;;5073087;28;20454;-68
2023/05/20 10:40:35;;;;;;;7.53;6.70;;;17.70;99.90;;;;;;5073257;28;20507;-68
2023/05/20 10:43:11;;;;;;;7.97;7.17;;;17.70;99.90;;;;;;5073380;28;20785;-68
2023/05/20 10:45:48;;;;;;;8.50;6.87;;;17.80;99.90;;;;;;5073334;28;20438;-68
2023/05/20 10:48:23;;;;;;;8.17;7.37;;;17.80;99.90;;;;;;5073481;28;20782;-68
2023/05/20 10:50:50;;;;;;;11.57;7.43;;;17.90;99.90;;;;;;5073001;28;20440;-68
2023/05/20 10:53:17;;;;;;;10.17;7.50;;;17.90;99.90;;;;;;5073389;28;20476;-68
2023/05/20 10:55:51;;;;;;;8.10;6.80;;;18.10;99.90;;;;;;5073244;28;20464;-68
2023/05/20 10:58:22;;;;;;;7.00;6.30;;;18.20;99.90;;;;;;5073411;28;20443;-68
2023/05/20 11:00:49;;;;;;;9.87;7.07;;;18.40;99.90;;;;;;5073025;28;20466;-68
2023/05/20 11:03:17;;;;;;;8.37;7.57;;;18.60;99.90;;;;;;5074224;28;20511;-68
2023/05/20 11:05:46;;;;;;;10.03;6.90;;;18.80;99.90;;;;;;5077047;28;20450;-68
2023/05/20 11:08:13;;;;;;;10.73;7.47;;;19.10;99.90;;;;;;5076988;28;20767;-68
2023/05/20 11:10:41;;;;;;;7.70;6.90;;;19.40;99.90;;;;;;5076739;28;20541;-68
2023/05/20 11:13:08;;;;;;;7.97;6.90;;;19.60;99.90;;;;;;5077147;28;20462;-68
2023/05/20 11:15:37;;;;;;;8.80;6.97;;;19.70;99.90;;;;;;5076706;28;20465;-68
2023/05/20 11:18:04;;;;;;;10.53;6.87;;;19.80;99.90;;;;;;5076302;28;20541;-68
2023/05/20 11:20:34;;;;;;;8.13;7.13;;;19.90;99.90;;;;;;5077002;28;20500;-68
2023/05/20 11:23:02;;;;;;;8.27;7.23;;;20.00;99.90;;;;;;5076884;28;20458;-66
2023/05/20 11:25:28;;;;;;;7.50;6.67;;;20.20;99.90;;;;;;5076629;28;20458;-67
2023/05/20 11:27:55;;;;;;;7.80;7.00;;;20.70;99.90;;;;;;5076699;28;20497;-67
2023/05/20 11:30:22;;;;;;;7.97;7.17;;;21.30;99.90;;;;;;5076114;28;20515;-67
2023/05/20 11:33:02;;;;;;;8.30;7.03;;;21.70;99.90;;;;;;5076626;28;20454;-67
2023/05/20 11:35:30;;;;;;;8.97;7.47;;;22.30;99.90;;;;;;5076152;28;20867;-67
2023/05/20 11:38:00;;;;;;;9.20;6.67;;;23.20;99.90;;;;;;5075885;28;20469;-67
2023/05/20 11:40:28;;;;;;;6.87;6.17;;;24.40;99.90;;;;;;5075855;28;20477;-67
2023/05/20 11:42:56;;;;;;;8.70;7.87;;;25.30;99.90;;;;;;5076529;28;20799;-67
2023/05/20 11:45:23;;;;;;;6.73;6.13;;;25.80;98.80;;;;;;5076048;28;20515;-67
2023/05/20 11:48:01;;;;;;;7.33;6.70;;;25.80;93.90;;;;;;5075919;28;20451;-67
2023/05/20 11:50:29;;;;;;;8.20;7.00;;;25.30;91.50;;;;;;5075952;28;20454;-67
2023/05/20 11:52:58;;;;;;;7.80;7.10;;;24.80;92.10;;;;;;5075972;28;20505;-68
2023/05/20 11:55:25;;;;;;;13.10;7.00;;;24.60;92.60;;;;;;5076257;28;20842;-68
2023/05/20 11:57:52;;;;;;;9.00;7.73;;;24.40;92.70;;;;;;5076166;28;20804;-68
2023/05/20 12:00:19;;;;;;;8.30;7.40;;;24.00;93.20;;;;;;5075662;28;20568;-68
2023/05/20 12:02:46;;;;;;;7.63;6.87;;;23.90;94.20;;;;;;5076056;28;20462;-68
2023/05/20 12:05:15;;;;;;;8.33;7.40;;;24.10;96.00;;;;;;5075804;28;20454;-68
2023/05/20 12:07:42;;;;;;;7.67;7.00;;;24.80;95.70;;;;;;5075707;28;20458;-68
2023/05/20 12:10:09;;;;;;;7.60;6.93;;;25.60;92.00;;;;;;5076235;28;20468;-67
2023/05/20 12:12:36;;;;;;;6.53;5.93;;;26.00;86.90;;;;;;5075851;28;20458;-67
2023/05/20 12:15:04;;;;;;;6.83;6.20;;;26.30;85.10;;;;;;5075540;28;20833;-68
2023/05/20 12:17:31;;;;;;;7.50;6.80;;;26.90;81.80;;;;;;5075568;28;20454;-68
2023/05/20 12:19:58;;;;;;;8.60;7.27;;;27.40;75.80;;;;;;5075155;28;20766;-68
2023/05/20 12:22:27;;;;;;;7.17;6.47;;;27.90;71.20;;;;;;5075641;28;20454;-68
2023/05/20 12:24:53;;;;;;;9.57;6.80;;;28.60;67.00;;;;;;5075486;28;20464;-68
2023/05/20 12:27:20;;;;;;;7.93;6.00;;;29.40;61.80;;;;;;5074991;28;20454;-68
2023/05/20 12:29:47;;;;;;;7.17;6.10;;;30.10;56.50;;;;;;5075403;28;20469;-68
2023/05/20 12:32:14;;;;;;;8.23;5.97;;;30.80;53.10;;;;;;5074917;28;20941;-68
2023/05/20 12:34:40;;;;;;;7.20;6.60;;;31.30;49.20;;;;;;5075393;28;20501;-68
2023/05/20 12:37:07;;;;;;;7.77;7.00;;;31.20;46.50;;;;;;5075319;28;20454;-68
2023/05/20 12:39:36;;;;;;;7.67;6.87;;;31.20;45.30;;;;;;5074837;28;20488;-68
2023/05/20 12:42:02;;;;;;;7.50;6.80;;;31.30;43.30;;;;;;5074689;28;20517;-68
2023/05/20 12:44:29;;;;;;;8.33;7.13;;;30.90;41.40;;;;;;5075186;28;20464;-68
2023/05/20 12:46:56;;;;;;;8.90;6.93;;;30.10;41.40;;;;;;5074848;28;20934;-68
2023/05/20 12:49:23;;;;;;;7.10;6.50;;;29.20;42.60;;;;;;5074940;28;20468;-68